Aeroporto :
LOGIN :

Iscrizione | Disclaimer

   EN    FR    IT 

 










Sommario :    VFR   VFR Marginale   IFR   IFR Intensivo   IFR Molto Intensivo
Visibilità : 
Base nubi : 
>= 8 km
>= 3000ft
5 / 8 km
1000 / 3000 ft
1500m / 5 km
500 / 1000 ft
800 / 1500m
200 / 500 ft
< 800m
< 200 ft
Simboli :   Temporali  Nebbia  Neve Forte  Precipitazioni Forti  Vento > 20 kt
SIGMETs :   Varie  Temporali  Ghiacco  Turbolenza  Onda orograficha  Ceneri Vulcaniche






- Altitudine del aeroporto : 943 ft


LIMA - Torino / Aeritalia

ULTIMO METAR :
  • 161250Z 21005KT 150V250 CAVOK 31/19 Q1012

METARs OBSOLETI :
  • 161150Z 19005KT 150V250 CAVOK 30/19 Q1013
  • 161050Z 25005KT 210V310 CAVOK 30/18 Q1013
  • 160950Z 23004KT 190V300 CAVOK 29/18 Q1013
  • 160850Z VRB02KT CAVOK 28/19 Q1013
  • 160750Z VRB03KT CAVOK 27/18 Q1013

TAF N/A



MetMap, La meteo Aeronautica in un colpo d'occhio ! - Copyright ORBIFLY Dicembre 2007 - Disclaimer

ORBIFLY MET'MAP TEAM :

Programmazione e sviluppo : Alexandra Zaïnal
Concezione : Baudouin d'Aumeries
Supporto tecnico e logistico : Manuel Goepfert
Aiuto : Marc-Olivier Méhu
Aiuto per la traduzione : Arnaldo La Scala




FONTI E CREDITI :

   NOAA